Time;durP1;ratioP1;P1;durP2;ratioP2;P2;SDS_P1;SDS_P2;PMS_P1;PMS_P2;Temp;Humidity;BMP_temperature;BMP_pressure;BME280_temperature;BME280_humidity;BME280_pressure;Samples;Min_cycle;Max_cycle;Signal;HPM_P1;HPM_P2
2022/03/05 00:01:01;;;;;;;21.97;9.93;;;;;;;-1.12;61.13;98780.84;5092979;28;20222;-63
2022/03/05 00:03:27;;;;;;;20.87;10.53;;;;;;;-1.15;60.81;98775.88;5092660;28;20761;-63
2022/03/05 00:05:54;;;;;;;22.60;10.93;;;;;;;-1.02;62.57;98776.09;5099172;28;20188;-63
2022/03/05 00:08:22;;;;;;;23.37;11.53;;;;;;;-1.00;59.88;98775.13;5111811;28;20641;-63
2022/03/05 00:10:50;;;;;;;25.03;10.97;;;;;;;-1.13;60.74;98768.94;5094994;28;20635;-63
2022/03/05 00:13:17;;;;;;;22.67;10.17;;;;;;;-1.13;60.89;98769.78;5113006;28;20544;-63
2022/03/05 00:15:44;;;;;;;28.00;11.20;;;;;;;-1.19;60.97;98770.06;5112697;28;20205;-63
2022/03/05 00:18:10;;;;;;;22.90;10.87;;;;;;;-1.31;61.17;98768.09;5101904;28;20239;-63
2022/03/05 00:20:37;;;;;;;25.80;10.97;;;;;;;-1.37;61.19;98771.75;5094623;28;20194;-63
2022/03/05 00:23:04;;;;;;;24.90;12.17;;;;;;;-1.32;61.75;98771.56;5093837;28;20212;-63
2022/03/05 00:25:31;;;;;;;25.40;11.20;;;;;;;-1.24;60.85;98770.28;5102311;28;20189;-63
2022/03/05 00:27:59;;;;;;;23.33;11.40;;;;;;;-1.30;60.98;98774.88;5102652;28;20186;-63
2022/03/05 00:30:26;;;;;;;24.00;12.03;;;;;;;-1.20;61.06;98773.53;5102065;28;20191;-63
2022/03/05 00:32:53;;;;;;;28.20;11.33;;;;;;;-1.25;61.02;98770.38;5101459;28;20209;-63
2022/03/05 00:35:20;;;;;;;24.60;11.80;;;;;;;-1.24;60.90;98770.28;5101441;28;20185;-63
2022/03/05 00:37:47;;;;;;;24.23;12.00;;;;;;;-1.34;61.08;98771.59;5101439;28;20192;-64
2022/03/05 00:40:14;;;;;;;24.83;11.43;;;;;;;-1.38;62.00;98775.22;5101776;28;20192;-63
2022/03/05 00:42:41;;;;;;;25.73;11.83;;;;;;;-1.28;60.91;98778.19;5100667;28;20201;-63
2022/03/05 00:45:10;;;;;;;27.33;14.00;;;;;;;-1.22;61.47;98771.03;5101377;28;20189;-63
2022/03/05 00:47:37;;;;;;;24.30;12.50;;;;;;;-1.17;60.96;98778.50;5100053;28;20181;-63
2022/03/05 00:50:06;;;;;;;26.10;11.63;;;;;;;-1.22;61.33;98770.22;5102312;28;20186;-63
2022/03/05 00:52:34;;;;;;;25.23;12.03;;;;;;;-1.14;60.06;98778.38;5101337;28;20292;-63
2022/03/05 00:55:00;;;;;;;24.27;12.23;;;;;;;-1.13;60.40;98782.59;5101388;28;20251;-64
2022/03/05 00:57:27;;;;;;;26.00;12.53;;;;;;;-0.94;59.37;98774.00;5102049;28;20221;-63
2022/03/05 00:59:54;;;;;;;28.43;12.33;;;;;;;-0.96;59.81;98775.81;5099157;28;20189;-63
2022/03/05 01:02:22;;;;;;;24.00;11.43;;;;;;;-0.78;59.28;98776.66;5100634;28;20214;-63
2022/03/05 01:04:49;;;;;;;24.67;11.77;;;;;;;-0.75;58.58;98785.00;5100537;28;20211;-63
2022/03/05 01:07:16;;;;;;;24.87;11.73;;;;;;;-0.77;58.43;98783.44;5102709;28;20197;-62
2022/03/05 01:09:42;;;;;;;24.93;11.93;;;;;;;-0.75;59.58;98787.56;5099710;28;20183;-62
2022/03/05 01:12:10;;;;;;;24.43;11.20;;;;;;;-0.81;59.83;98787.06;5101430;28;20236;-62
2022/03/05 01:14:37;;;;;;;19.80;11.13;;;;;;;-0.86;59.08;98789.84;5100793;28;20594;-62
2022/03/05 01:17:04;;;;;;;23.10;10.77;;;;;;;-0.77;59.15;98779.13;5101566;28;20201;-63
2022/03/05 01:19:33;;;;;;;22.97;10.47;;;;;;;-0.67;58.01;98776.13;5101137;28;20225;-62
2022/03/05 01:22:00;;;;;;;21.83;11.13;;;;;;;-0.75;58.70;98779.88;5100735;28;20231;-62
2022/03/05 01:24:27;;;;;;;24.33;11.07;;;;;;;-0.77;59.35;98776.56;5099532;28;20203;-63
2022/03/05 01:26:53;;;;;;;23.20;10.63;;;;;;;-0.84;60.31;98772.66;5086454;28;20183;-62
2022/03/05 01:29:20;;;;;;;25.50;11.13;;;;;;;-0.89;60.59;98769.47;5089206;28;20198;-63
2022/03/05 01:31:47;;;;;;;25.33;11.57;;;;;;;-0.95;61.16;98773.19;5090896;28;20232;-62
2022/03/05 01:34:14;;;;;;;22.07;10.27;;;;;;;-0.88;60.33;98770.31;5090551;28;20197;-63
2022/03/05 01:36:42;;;;;;;23.50;10.83;;;;;;;-0.93;60.40;98770.53;5090879;28;20636;-63
2022/03/05 01:39:09;;;;;;;21.50;10.07;;;;;;;-0.81;58.69;98764.81;5100254;28;20672;-63
2022/03/05 01:41:37;;;;;;;20.60;9.93;;;;;;;-0.91;60.43;98764.44;5099996;28;20210;-63
2022/03/05 01:44:05;;;;;;;22.70;10.47;;;;;;;-0.98;60.59;98768.19;5099068;28;20216;-63
2022/03/05 01:46:35;;;;;;;20.17;10.27;;;;;;;-1.04;60.59;98771.06;5101461;28;20231;-63
2022/03/05 01:49:03;;;;;;;23.30;11.23;;;;;;;-0.94;59.64;98772.28;5082750;28;20605;-63
2022/03/05 01:51:29;;;;;;;21.83;10.07;;;;;;;-0.94;59.77;98772.28;5098445;28;20186;-63
2022/03/05 01:53:57;;;;;;;20.30;10.57;;;;;;;-0.92;60.64;98782.44;5099770;28;20229;-63
2022/03/05 01:56:26;;;;;;;25.17;10.53;;;;;;;-0.97;61.06;98777.56;5099664;28;20197;-63
2022/03/05 01:58:53;;;;;;;20.90;10.70;;;;;;;-1.05;61.38;98777.91;5099867;28;20197;-64
2022/03/05 02:01:22;;;;;;;23.20;10.57;;;;;;;-1.17;61.71;98770.81;5100024;28;20213;-63
2022/03/05 02:03:49;;;;;;;18.80;10.00;;;;;;;-1.26;61.54;98779.75;5095338;28;20214;-63
2022/03/05 02:06:16;;;;;;;24.10;11.07;;;;;;;-1.27;61.51;98775.53;5091498;28;20190;-63
2022/03/05 02:08:42;;;;;;;23.10;11.03;;;;;;;-1.27;62.27;98772.97;5101001;28;20193;-63
2022/03/05 02:11:11;;;;;;;22.87;10.30;;;;;;;-1.24;60.80;98766.91;5090734;28;20188;-63
2022/03/05 02:13:38;;;;;;;23.93;11.37;;;;;;;-1.31;62.54;98771.47;5090227;28;20220;-63
2022/03/05 02:16:06;;;;;;;23.50;11.83;;;;;;;-1.35;63.14;98775.06;5090291;28;20688;-63
2022/03/05 02:18:32;;;;;;;24.77;11.30;;;;;;;-1.41;62.59;98768.50;5090811;28;20186;-63
2022/03/05 02:21:01;;;;;;;22.47;10.60;;;;;;;-1.48;63.15;98764.56;5090231;28;20178;-62
2022/03/05 02:23:28;;;;;;;22.43;10.93;;;;;;;-1.37;61.81;98757.22;5089902;28;20221;-63
2022/03/05 02:25:56;;;;;;;24.43;11.20;;;;;;;-1.35;63.01;98759.69;5090193;28;20664;-62
2022/03/05 02:28:27;;;;;;;23.50;11.37;;;;;;;-1.45;63.83;98758.47;5090425;28;20194;-62
2022/03/05 02:30:55;;;;;;;24.50;11.33;;;;;;;-1.51;63.18;98759.59;5091263;28;20646;-62
2022/03/05 02:33:21;;;;;;;20.50;9.53;;;;;;;-1.46;62.67;98762.78;5108810;28;20204;-64
2022/03/05 02:35:49;;;;;;;22.10;10.17;;;;;;;-1.44;63.41;98760.13;5110691;28;20190;-63
2022/03/05 02:38:19;;;;;;;20.97;10.97;;;;;;;-1.47;63.85;98756.00;5108239;28;20187;-63
2022/03/05 02:40:48;;;;;;;22.10;10.73;;;;;;;-1.56;63.41;98752.13;5110758;28;20223;-63
2022/03/05 02:43:15;;;;;;;20.50;9.70;;;;;;;-1.54;63.82;98757.19;5092174;28;20403;-63
2022/03/05 02:45:43;;;;;;;20.43;9.80;;;;;;;-1.60;64.57;98749.78;5110380;28;20185;-64
2022/03/05 02:48:12;;;;;;;17.63;9.47;;;;;;;-1.50;62.98;98751.03;5110679;28;20197;-63
2022/03/05 02:50:40;;;;;;;20.53;9.73;;;;;;;-1.47;62.95;98753.44;5110668;28;20188;-63
2022/03/05 02:53:07;;;;;;;18.00;8.80;;;;;;;-1.46;63.39;98756.81;5109833;28;20816;-63
2022/03/05 02:55:36;;;;;;;18.57;9.43;;;;;;;-1.52;63.24;98752.81;5110292;28;20190;-63
2022/03/05 02:58:03;;;;;;;16.97;9.23;;;;;;;-1.60;64.30;98760.03;5110650;28;20550;-63
2022/03/05 03:00:31;;;;;;;21.03;9.60;;;;;;;-1.67;64.24;98755.19;5104617;28;20185;-63
2022/03/05 03:02:58;;;;;;;21.63;9.50;;;;;;;-1.73;64.42;98760.56;5079983;28;20457;-63
2022/03/05 03:05:25;;;;;;;23.30;9.17;;;;;;;-1.72;64.25;98757.13;5096067;28;20193;-63
2022/03/05 03:07:53;;;;;;;17.43;8.70;;;;;;;-1.79;64.91;98758.28;5097438;28;20190;-63
2022/03/05 03:10:20;;;;;;;18.90;9.10;;;;;;;-1.84;65.02;98755.97;5099464;28;20182;-63
2022/03/05 03:12:48;;;;;;;19.00;9.27;;;;;;;-1.82;64.66;98750.75;5100350;28;20211;-62
2022/03/05 03:15:16;;;;;;;18.00;9.50;;;;;;;-1.85;64.99;98750.91;5102742;28;20189;-62
2022/03/05 03:17:45;;;;;;;20.20;9.57;;;;;;;-1.83;64.92;98752.50;5103781;28;20194;-64
2022/03/05 03:20:15;;;;;;;20.67;9.13;;;;;;;-1.84;64.86;98753.41;5099523;28;20194;-62
2022/03/05 03:22:42;;;;;;;19.47;8.67;;;;;;;-1.85;65.20;98756.84;5101746;28;20228;-62
2022/03/05 03:25:10;;;;;;;20.53;9.47;;;;;;;-1.90;64.95;98753.69;5103229;28;20658;-62
2022/03/05 03:27:38;;;;;;;17.80;8.57;;;;;;;-1.90;64.99;98760.50;5102598;28;20210;-62
2022/03/05 03:30:08;;;;;;;17.33;8.13;;;;;;;-1.94;64.91;98762.38;5101573;28;20701;-62
2022/03/05 03:32:35;;;;;;;17.63;8.37;;;;;;;-2.01;64.77;98761.00;5099200;28;20206;-62
2022/03/05 03:35:03;;;;;;;18.50;8.47;;;;;;;-1.98;64.77;98766.78;5101438;28;20228;-63
2022/03/05 03:37:31;;;;;;;15.33;7.90;;;;;;;-2.04;64.56;98761.94;5098762;28;20205;-63
2022/03/05 03:39:58;;;;;;;17.73;7.83;;;;;;;-2.08;64.25;98756.16;5102393;28;20263;-63
2022/03/05 03:42:26;;;;;;;18.63;7.80;;;;;;;-2.08;64.17;98770.66;5102847;28;20221;-63
2022/03/05 03:44:53;;;;;;;15.53;7.83;;;;;;;-2.05;65.23;98764.59;5101174;28;20282;-63
2022/03/05 03:47:22;;;;;;;16.20;7.27;;;;;;;-2.14;65.80;98765.84;5101749;28;20239;-63
2022/03/05 03:49:50;;;;;;;16.60;7.57;;;;;;;-2.19;64.93;98762.66;5103386;28;20246;-63
2022/03/05 03:52:17;;;;;;;16.40;8.20;;;;;;;-2.20;65.40;98758.44;5101610;28;20210;-63
2022/03/05 03:54:45;;;;;;;19.77;8.00;;;;;;;-2.18;64.70;98770.22;5100563;28;20201;-63
2022/03/05 03:57:12;;;;;;;14.63;6.77;;;;;;;-2.07;63.49;98764.63;5098373;28;20669;-63
2022/03/05 03:59:39;;;;;;;16.03;7.50;;;;;;;-2.04;63.25;98771.38;5101830;28;20205;-63
2022/03/05 04:02:06;;;;;;;13.67;6.63;;;;;;;-1.98;62.36;98771.91;5102555;28;20262;-63
2022/03/05 04:04:35;;;;;;;13.93;6.67;;;;;;;-1.93;62.33;98779.41;5082275;28;20635;-63
2022/03/05 04:09:46;;;;;;;13.63;6.40;;;;;;;-1.82;61.60;98774.63;5100082;28;20191;-63
2022/03/05 04:12:13;;;;;;;16.93;6.60;;;;;;;-1.85;61.26;98777.31;5100807;28;20205;-63
2022/03/05 04:14:42;;;;;;;14.93;6.40;;;;;;;-1.85;62.66;98786.72;5101155;28;20557;-62
2022/03/05 04:17:09;;;;;;;13.60;6.33;;;;;;;-1.89;62.31;98790.31;5102757;28;20677;-62
2022/03/05 04:19:37;;;;;;;12.27;6.17;;;;;;;-1.96;62.79;98784.66;5101618;28;20184;-62
2022/03/05 04:22:04;;;;;;;10.77;5.90;;;;;;;-2.01;62.91;98782.28;5100180;28;20209;-62
2022/03/05 04:24:31;;;;;;;13.10;5.97;;;;;;;-2.02;63.08;98784.91;5097575;28;20208;-63
2022/03/05 04:26:58;;;;;;;12.00;6.03;;;;;;;-2.01;63.23;98787.38;5101901;28;20643;-62
2022/03/05 04:29:25;;;;;;;13.50;5.83;;;;;;;-2.08;63.78;98786.84;5102705;28;20203;-62
2022/03/05 04:31:52;;;;;;;9.80;5.60;;;;;;;-2.07;62.59;98790.22;5099386;28;20193;-62
2022/03/05 04:34:19;;;;;;;10.07;4.97;;;;;;;-2.11;63.07;98794.66;5100945;28;20185;-62
2022/03/05 04:36:48;;;;;;;10.17;4.93;;;;;;;-2.12;63.31;98789.63;5102511;28;20181;-62
2022/03/05 04:39:15;;;;;;;11.90;5.30;;;;;;;-2.10;62.36;98795.47;5101018;28;20272;-63
2022/03/05 04:41:42;;;;;;;11.63;5.47;;;;;;;-2.08;62.55;98798.78;5100827;28;20181;-63
2022/03/05 04:44:09;;;;;;;10.70;4.87;;;;;;;-2.08;62.13;98793.66;5101852;28;20681;-63
2022/03/05 04:46:36;;;;;;;8.73;4.87;;;;;;;-2.13;62.72;98798.19;5100863;28;20182;-63
2022/03/05 04:49:03;;;;;;;7.60;4.30;;;;;;;-2.13;62.71;98804.13;5100627;28;20194;-63
2022/03/05 04:51:30;;;;;;;9.90;4.77;;;;;;;-2.16;61.92;98799.13;5102166;28;20191;-63
2022/03/05 04:53:58;;;;;;;9.13;4.47;;;;;;;-2.23;62.23;98805.41;5100281;28;20210;-63
2022/03/05 04:56:25;;;;;;;10.83;5.10;;;;;;;-2.17;60.93;98809.44;5100081;28;20581;-63
2022/03/05 04:58:52;;;;;;;9.27;4.27;;;;;;;-2.25;61.34;98805.47;5097511;28;20206;-63
2022/03/05 05:01:19;;;;;;;11.50;4.63;;;;;;;-2.27;60.67;98802.16;5100928;28;20189;-63
2022/03/05 05:03:46;;;;;;;10.27;4.30;;;;;;;-2.14;59.93;98805.00;5101484;28;20205;-63
2022/03/05 05:06:14;;;;;;;8.73;4.37;;;;;;;-2.13;59.06;98814.34;5099957;28;20237;-63
2022/03/05 05:08:40;;;;;;;8.80;4.57;;;;;;;-2.13;59.55;98810.97;5100571;28;20196;-63
2022/03/05 05:11:09;;;;;;;8.53;4.23;;;;;;;-2.17;59.49;98810.25;5101959;28;20181;-63
2022/03/05 05:13:36;;;;;;;6.57;4.07;;;;;;;-2.14;58.48;98806.75;5081697;28;20214;-63
2022/03/05 05:16:03;;;;;;;7.90;4.23;;;;;;;-2.13;58.04;98806.66;5099694;28;20186;-63
2022/03/05 05:18:29;;;;;;;9.10;4.17;;;;;;;-2.19;58.89;98806.13;5101885;28;20587;-63
2022/03/05 05:20:56;;;;;;;8.73;3.30;;;;;;;-2.20;59.64;98814.69;5100600;28;20190;-63
2022/03/05 05:23:23;;;;;;;7.63;3.30;;;;;;;-2.25;59.35;98813.16;5099608;28;20625;-63
2022/03/05 05:25:50;;;;;;;7.03;3.60;;;;;;;-2.29;58.96;98811.63;5101198;28;20181;-63
2022/03/05 05:28:19;;;;;;;8.43;3.80;;;;;;;-2.29;58.18;98818.44;5100423;28;20247;-64
2022/03/05 05:30:46;;;;;;;5.73;2.97;;;;;;;-2.21;58.11;98816.41;5099420;28;20173;-63
2022/03/05 05:33:12;;;;;;;6.43;2.85;;;;;;;-2.27;58.10;98820.06;5096583;28;20086;-63
2022/03/05 05:35:39;;;;;;;8.30;3.63;;;;;;;-2.19;57.74;98816.34;5099415;28;20186;-63
2022/03/05 05:38:06;;;;;;;5.60;3.00;;;;;;;-2.17;56.85;98820.50;5095865;28;20185;-63
2022/03/05 05:40:34;;;;;;;7.60;3.50;;;;;;;-2.07;55.64;98805.56;5094379;28;20691;-63
2022/03/05 05:43:00;;;;;;;6.00;3.10;;;;;;;-2.05;55.57;98818.31;5094211;28;20220;-63
2022/03/05 05:45:30;;;;;;;8.10;3.20;;;;;;;-2.03;56.67;98819.06;5098486;28;20193;-63
2022/03/05 05:47:58;;;;;;;10.07;3.67;;;;;;;-2.01;56.75;98818.09;5099078;28;20186;-63
2022/03/05 05:50:24;;;;;;;64.10;23.03;;;;;;;-1.94;56.18;98827.16;5100181;28;20257;-63
2022/03/05 05:52:51;;;;;;;21.27;8.40;;;;;;;-1.88;56.49;98826.06;5100437;28;20279;-63
2022/03/05 05:55:18;;;;;;;6.20;3.27;;;;;;;-1.83;56.81;98826.72;5100696;28;20194;-63
2022/03/05 05:57:45;;;;;;;9.50;4.00;;;;;;;-1.80;56.10;98838.53;5099886;28;20570;-63
2022/03/05 06:00:12;;;;;;;7.13;3.70;;;;;;;-1.75;55.94;98840.91;5080314;28;20671;-64
2022/03/05 06:02:43;;;;;;;6.23;3.57;;;;;;;-1.54;53.08;98841.66;5096482;28;20703;-63
2022/03/05 06:05:10;;;;;;;7.30;3.73;;;;;;;-1.42;53.19;98838.56;5098897;28;20201;-64
2022/03/05 06:07:38;;;;;;;6.10;3.27;;;;;;;-1.37;54.01;98835.75;5100878;28;20643;-64
2022/03/05 06:10:05;;;;;;;7.10;3.30;;;;;;;-1.30;53.80;98844.84;5099894;28;20190;-64
2022/03/05 06:12:32;;;;;;;6.47;3.53;;;;;;;-1.29;53.25;98843.94;5098554;28;20245;-64
2022/03/05 06:14:59;;;;;;;7.50;3.60;;;;;;;-1.25;53.98;98847.19;5095974;28;20451;-63
2022/03/05 06:17:26;;;;;;;6.03;3.37;;;;;;;-1.28;54.45;98845.59;5099762;28;20210;-64
2022/03/05 06:19:54;;;;;;;6.77;3.83;;;;;;;-1.31;54.49;98847.47;5101009;28;20186;-63
2022/03/05 06:22:23;;;;;;;7.40;3.80;;;;;;;-1.39;55.25;98855.50;5096011;28;20214;-63
2022/03/05 06:24:49;;;;;;;8.67;3.70;;;;;;;-1.41;55.16;98858.13;5098562;28;20276;-63
2022/03/05 06:27:16;;;;;;;9.87;4.00;;;;;;;-1.39;55.62;98858.06;5100875;28;20250;-63
2022/03/05 06:29:43;;;;;;;7.00;4.03;;;;;;;-1.37;55.91;98861.38;5099621;28;20186;-64
2022/03/05 06:32:10;;;;;;;9.27;4.10;;;;;;;-1.29;55.10;98859.28;5098665;28;20197;-63
2022/03/05 06:34:37;;;;;;;8.50;3.87;;;;;;;-1.22;53.52;98860.69;5100569;28;20186;-63
2022/03/05 06:37:05;;;;;;;8.00;4.00;;;;;;;-1.15;54.50;98860.41;5099694;28;20182;-63
2022/03/05 06:39:32;;;;;;;8.43;4.40;;;;;;;-1.08;53.33;98866.91;5098641;28;20277;-64
2022/03/05 06:41:59;;;;;;;10.20;4.63;;;;;;;-1.10;54.83;98869.56;5095658;28;20238;-63
2022/03/05 06:44:31;;;;;;;7.50;4.03;;;;;;;-1.10;55.62;98867.00;5098930;28;20197;-63
2022/03/05 06:46:58;;;;;;;8.23;4.10;;;;;;;-1.14;55.02;98868.03;5101844;28;20224;-63
2022/03/05 06:49:25;;;;;;;7.47;3.80;;;;;;;-1.15;55.83;98866.38;5103931;28;20444;-63
2022/03/05 06:51:52;;;;;;;8.80;4.33;;;;;;;-1.16;55.85;98869.00;5104050;28;20186;-63
2022/03/05 06:54:20;;;;;;;7.30;3.80;;;;;;;-1.20;55.97;98869.13;5099291;28;20201;-63
2022/03/05 06:56:47;;;;;;;11.50;6.07;;;;;;;-1.09;54.58;98871.22;5103492;28;20242;-63
2022/03/05 06:59:14;;;;;;;10.70;5.97;;;;;;;-1.14;55.41;98870.59;5104535;28;20223;-63
2022/03/05 07:01:40;;;;;;;9.10;3.87;;;;;;;-1.16;55.48;98869.84;5102505;28;20193;-63
2022/03/05 07:04:07;;;;;;;5.63;3.63;;;;;;;-0.95;53.02;98878.25;5102412;28;20189;-63
2022/03/05 07:06:34;;;;;;;8.73;4.33;;;;;;;-0.76;52.87;98874.81;5103966;28;20202;-64
2022/03/05 07:09:01;;;;;;;9.30;4.60;;;;;;;-0.68;52.75;98877.84;5102619;28;20191;-63
2022/03/05 07:11:29;;;;;;;7.23;3.87;;;;;;;-0.63;51.22;98886.16;5103000;28;20213;-63
2022/03/05 07:13:56;;;;;;;9.50;4.60;;;;;;;-0.54;52.77;98874.59;5103757;28;20333;-64
2022/03/05 07:16:23;;;;;;;11.67;5.90;;;;;;;-0.53;53.01;98880.59;5102723;28;20190;-64
2022/03/05 07:18:50;;;;;;;7.93;3.97;;;;;;;-0.56;54.08;98885.88;5102649;28;20200;-64
2022/03/05 07:21:17;;;;;;;6.20;3.10;;;;;;;-0.62;54.76;98886.97;5103918;28;20275;-64
2022/03/05 07:23:44;;;;;;;7.30;3.50;;;;;;;-0.57;53.28;98884.19;5102684;28;20211;-64
2022/03/05 07:26:10;;;;;;;7.57;4.00;;;;;;;-0.65;53.99;98894.81;5101970;28;20220;-64
2022/03/05 07:28:39;;;;;;;8.30;3.40;;;;;;;-0.71;55.29;98887.41;5104279;28;20186;-64
2022/03/05 07:31:06;;;;;;;7.13;3.23;;;;;;;-0.73;55.61;98890.06;5102969;28;20198;-64
2022/03/05 07:33:33;;;;;;;8.57;3.85;;;;;;;-0.72;53.56;98896.00;5101286;28;20423;-64
2022/03/05 07:36:00;;;;;;;7.57;3.93;;;;;;;-0.69;54.40;98891.56;5098894;28;20186;-64
2022/03/05 07:38:27;;;;;;;9.00;3.73;;;;;;;-0.67;53.99;98896.59;5102510;28;20185;-64
2022/03/05 07:40:53;;;;;;;6.93;3.60;;;;;;;-0.56;55.50;98898.69;5104074;28;20213;-63
2022/03/05 07:43:20;;;;;;;8.10;4.17;;;;;;;-0.53;53.98;98898.53;5101490;28;20214;-64
2022/03/05 07:45:48;;;;;;;9.10;4.73;;;;;;;-0.40;51.93;98891.88;5101935;28;20204;-64
2022/03/05 07:48:19;;;;;;;9.87;3.90;;;;;;;-0.27;52.04;98898.97;5103735;28;20553;-64
2022/03/05 07:50:46;;;;;;;8.57;4.50;;;;;;;-0.14;49.59;98899.22;5102824;28;20182;-64
2022/03/05 07:53:13;;;;;;;7.27;3.83;;;;;;;0.01;47.98;98901.00;5101174;28;20212;-64
2022/03/05 07:55:40;;;;;;;8.07;3.97;;;;;;;0.13;49.78;98912.41;5098365;28;20178;-64
2022/03/05 07:58:08;;;;;;;8.27;3.70;;;;;;;0.17;52.58;98915.63;5081600;28;20197;-64
2022/03/05 08:00:34;;;;;;;7.90;4.37;;;;;;;0.11;53.08;98916.78;5103762;28;20284;-64
2022/03/05 08:03:03;;;;;;;8.33;3.77;;;;;;;0.05;52.99;98910.22;5101170;28;20214;-64
2022/03/05 08:05:30;;;;;;;10.87;5.77;;;;;;;0.07;52.46;98920.41;5101166;28;20214;-64
2022/03/05 08:07:57;;;;;;;16.77;8.43;;;;;;;0.08;53.81;98922.06;5103093;28;20181;-64
2022/03/05 08:10:24;;;;;;;24.63;12.97;;;;;;;0.06;58.76;98916.19;5101728;28;20247;-64
2022/03/05 08:12:51;;;;;;;34.10;16.77;;;;;;;0.06;61.11;98923.88;5100967;28;20229;-64
2022/03/05 08:15:18;;;;;;;32.63;16.73;;;;;;;0.03;61.98;98924.84;5102467;28;20190;-63
2022/03/05 08:17:53;;;;;;;32.83;15.90;;;;;;;0.02;62.66;98925.75;5101935;28;20187;-64
2022/03/05 08:20:22;;;;;;;34.23;16.03;;;;;;;0.03;62.88;98919.72;5102812;28;20190;-64
2022/03/05 08:22:49;;;;;;;32.03;15.77;;;;;;;0.02;62.94;98925.75;5101808;28;20699;-63
2022/03/05 08:25:16;;;;;;;33.97;15.77;;;;;;;-0.01;63.18;98913.09;5100713;28;20198;-63
2022/03/05 08:27:43;;;;;;;30.53;14.20;;;;;;;0.10;62.90;98917.69;5102135;28;20273;-64
2022/03/05 08:30:11;;;;;;;30.23;15.10;;;;;;;0.20;63.54;98921.47;5102335;28;20223;-64
2022/03/05 08:32:38;;;;;;;31.40;15.43;;;;;;;0.23;63.76;98920.47;5100446;28;20268;-64
2022/03/05 08:35:06;;;;;;;29.43;14.70;;;;;;;0.36;63.86;98908.66;5101602;28;20187;-64
2022/03/05 08:37:35;;;;;;;32.23;15.17;;;;;;;0.42;63.09;98913.47;5102445;28;20190;-64
2022/03/05 08:40:03;;;;;;;28.80;14.50;;;;;;;0.59;62.59;98910.00;5076563;28;20589;-64
2022/03/05 08:42:30;;;;;;;28.37;13.53;;;;;;;0.63;62.54;98909.84;5101340;28;20297;-64
2022/03/05 08:44:57;;;;;;;26.80;12.27;;;;;;;0.73;62.30;98911.03;5099856;28;20199;-64
2022/03/05 08:47:23;;;;;;;28.70;12.90;;;;;;;0.82;61.61;98913.13;5101800;28;20199;-64
2022/03/05 08:49:50;;;;;;;24.63;12.30;;;;;;;0.90;61.41;98912.72;5101942;28;20188;-64
2022/03/05 08:52:17;;;;;;;31.70;15.03;;;;;;;0.99;62.33;98913.97;5099759;28;20219;-64
2022/03/05 08:54:46;;;;;;;24.33;12.77;;;;;;;1.18;60.77;98913.78;5101144;28;20199;-63
2022/03/05 08:57:12;;;;;;;25.10;12.43;;;;;;;1.25;61.08;98911.72;5101910;28;20192;-64
2022/03/05 08:59:40;;;;;;;33.27;17.17;;;;;;;1.33;60.58;98917.25;5100105;28;20236;-64
2022/03/05 09:02:08;;;;;;;30.48;16.08;;;;;;;1.44;60.40;98916.66;5100199;28;20427;-67
2022/03/05 09:04:35;;;;;;;22.83;13.73;;;;;;;1.57;59.62;98909.09;5101819;28;20191;-67
2022/03/05 09:07:02;;;;;;;17.10;8.40;;;;;;;2.00;49.96;98900.66;5100401;28;20186;-67
2022/03/05 09:09:29;;;;;;;19.07;9.77;;;;;;;2.11;52.26;98900.84;5100585;28;20198;-67
2022/03/05 09:11:57;;;;;;;27.67;14.93;;;;;;;2.20;56.70;98902.06;5101677;28;20195;-68
2022/03/05 09:14:24;;;;;;;24.97;12.87;;;;;;;2.29;58.53;98896.34;5100549;28;20193;-68
2022/03/05 09:16:51;;;;;;;25.17;12.83;;;;;;;2.32;58.58;98897.91;5100392;28;20185;-67
2022/03/05 09:19:18;;;;;;;25.47;13.00;;;;;;;2.32;58.15;98903.06;5099594;28;20193;-68
2022/03/05 09:21:45;;;;;;;23.37;13.03;;;;;;;2.41;58.89;98892.19;5101069;28;20185;-67
2022/03/05 09:24:12;;;;;;;15.67;8.60;;;;;;;2.54;53.85;98887.16;5100800;28;20657;-68
2022/03/05 09:26:39;;;;;;;13.33;7.47;;;;;;;2.80;49.51;98888.13;5099538;28;20265;-68
2022/03/05 09:29:07;;;;;;;15.50;8.40;;;;;;;2.94;50.57;98904.50;5101094;28;20191;-68
2022/03/05 09:31:34;;;;;;;16.07;7.97;;;;;;;3.07;49.33;98886.50;5102019;28;20194;-68
2022/03/05 09:34:01;;;;;;;20.77;11.20;;;;;;;3.29;50.60;98885.94;5096221;28;20295;-68
2022/03/05 09:36:28;;;;;;;16.93;7.87;;;;;;;3.44;45.70;98888.47;5100397;28;20181;-68
2022/03/05 09:38:55;;;;;;;18.23;9.20;;;;;;;3.56;46.50;98884.28;5101636;28;20200;-68
2022/03/05 09:41:23;;;;;;;17.13;8.13;;;;;;;3.69;47.94;98891.13;5099842;28;20247;-68
2022/03/05 09:43:51;;;;;;;13.00;6.77;;;;;;;3.77;43.63;98887.22;5099658;28;20664;-69
2022/03/05 09:46:22;;;;;;;10.13;5.33;;;;;;;3.88;42.18;98897.66;5101042;28;20220;-68
2022/03/05 09:48:51;;;;;;;6.53;4.00;;;;;;;3.96;40.12;98881.66;5100538;28;20182;-68
2022/03/05 09:51:17;;;;;;;10.60;4.23;;;;;;;4.13;39.87;98877.97;5099207;28;20194;-69
2022/03/05 09:53:45;;;;;;;7.93;4.07;;;;;;;4.23;38.02;98891.91;5100226;28;20218;-68
2022/03/05 09:56:11;;;;;;;8.43;4.40;;;;;;;4.32;37.11;98884.44;5100434;28;20182;-69
2022/03/05 09:58:39;;;;;;;10.40;5.00;;;;;;;4.43;38.63;98887.13;5099001;28;20231;-69
2022/03/05 10:01:06;;;;;;;12.50;5.73;;;;;;;4.70;38.71;98878.38;5100395;28;20189;-68
2022/03/05 10:03:45;;;;;;;9.30;4.90;;;;;;;4.79;37.62;98877.75;5100491;28;20214;-69
2022/03/05 10:06:16;;;;;;;7.97;4.50;;;;;;;4.89;39.04;98875.31;5097477;28;20274;-69
2022/03/05 10:08:44;;;;;;;8.27;4.20;;;;;;;4.97;35.26;98890.31;5096574;28;20654;-69
2022/03/05 10:11:12;;;;;;;6.47;3.80;;;;;;;5.09;35.06;98875.69;5099646;28;20185;-69
2022/03/05 10:13:40;;;;;;;8.13;4.10;;;;;;;5.13;34.22;98879.69;5100499;28;20202;-69
2022/03/05 10:16:21;;;;;;;6.13;3.77;;;;;;;5.16;34.70;98884.66;5099727;28;20178;-69
2022/03/05 10:18:50;;;;;;;11.50;6.20;;;;;;;5.27;35.24;98889.09;5097135;28;20190;-68
2022/03/05 10:21:17;;;;;;;10.20;6.13;;;;;;;5.32;33.75;98871.44;5098387;28;20612;-69
2022/03/05 10:23:48;;;;;;;9.47;4.10;;;;;;;5.26;33.18;98884.84;5099745;28;20201;-69
2022/03/05 10:26:17;;;;;;;8.03;4.83;;;;;;;5.32;33.62;98886.97;5100268;28;20206;-69
2022/03/05 10:28:45;;;;;;;8.93;4.47;;;;;;;5.35;33.11;98875.56;5096441;28;20189;-68
2022/03/05 10:31:13;;;;;;;10.33;4.47;;;;;;;5.42;34.09;98887.13;5099080;28;20238;-68
2022/03/05 10:33:42;;;;;;;9.30;5.03;;;;;;;5.32;32.52;98887.81;5100266;28;20205;-68
2022/03/05 10:36:17;;;;;;;8.37;4.67;;;;;;;5.30;33.90;98879.31;5099122;28;20235;-68
2022/03/05 10:38:47;;;;;;;9.37;4.53;;;;;;;5.32;33.50;98884.38;5097810;28;20686;-68
2022/03/05 10:41:17;;;;;;;8.37;4.57;;;;;;;5.39;34.83;98879.59;5097770;28;20629;-68
2022/03/05 10:43:44;;;;;;;8.77;4.87;;;;;;;5.42;34.17;98877.59;5092742;28;20244;-68
2022/03/05 10:46:11;;;;;;;9.67;5.20;;;;;;;5.49;35.50;98870.22;5078586;28;20206;-68
2022/03/05 10:48:40;;;;;;;11.47;5.43;;;;;;;5.58;35.52;98879.06;5100076;28;20191;-69
2022/03/05 10:51:13;;;;;;;11.10;5.83;;;;;;;5.52;33.90;98877.75;5091763;28;20208;-68
2022/03/05 10:53:43;;;;;;;12.90;6.10;;;;;;;5.52;33.16;98872.59;5093987;28;20235;-68
2022/03/05 10:56:24;;;;;;;11.30;6.13;;;;;;;5.65;34.17;98875.09;5092029;28;20189;-68
2022/03/05 10:59:05;;;;;;;32.23;19.57;;;;;;;5.65;35.13;98869.91;5096367;28;20235;-68
2022/03/05 11:01:33;;;;;;;9.53;5.90;;;;;;;5.71;34.63;98869.44;5096636;28;20193;-68
2022/03/05 11:04:00;;;;;;;8.47;5.37;;;;;;;5.80;34.10;98873.16;5097455;28;20205;-68
2022/03/05 11:06:28;;;;;;;63.97;26.00;;;;;;;5.69;32.82;98873.09;5095390;28;20214;-68
2022/03/05 11:08:55;;;;;;;10.17;6.07;;;;;;;5.77;33.16;98868.19;5099188;28;20501;-68
2022/03/05 11:11:23;;;;;;;10.43;5.40;;;;;;;5.71;34.54;98861.69;5100366;28;20273;-68
2022/03/05 11:13:50;;;;;;;9.47;5.80;;;;;;;5.84;34.08;98868.53;5080020;28;20631;-69
2022/03/05 11:16:17;;;;;;;10.80;5.67;;;;;;;5.84;33.19;98850.41;5098530;28;20204;-68
2022/03/05 11:18:44;;;;;;;12.90;6.73;;;;;;;5.94;36.00;98851.38;5100113;28;20242;-68
2022/03/05 11:21:11;;;;;;;12.47;6.23;;;;;;;6.03;34.28;98852.47;5098862;28;20186;-68
2022/03/05 11:23:42;;;;;;;13.27;6.60;;;;;;;6.05;35.52;98840.22;5098276;28;20197;-68
2022/03/05 11:26:11;;;;;;;13.07;6.90;;;;;;;6.13;35.66;98853.41;5077283;28;20206;-68
2022/03/05 11:28:45;;;;;;;12.57;7.17;;;;;;;6.30;35.66;98846.97;5098686;28;20517;-68
2022/03/05 11:31:17;;;;;;;11.37;6.17;;;;;;;6.34;32.45;98845.78;5096110;28;20194;-68